createdAt,value
2017-02-12T00:00:43.052Z,1024.46
2017-02-12T00:01:42.990Z,1024.44
2017-02-12T00:02:42.926Z,1024.48
2017-02-12T00:03:42.862Z,1024.44
2017-02-12T00:04:42.798Z,1024.45
2017-02-12T00:05:42.736Z,1024.46
2017-02-12T00:06:42.671Z,1024.49
2017-02-12T00:07:42.607Z,1024.51
2017-02-12T00:08:42.543Z,1024.49
2017-02-12T00:09:42.480Z,1024.49
2017-02-12T00:10:42.417Z,1024.47
2017-02-12T00:11:42.352Z,1024.45
2017-02-12T00:12:42.292Z,1024.49
2017-02-12T00:13:42.227Z,1024.46
2017-02-12T00:14:42.161Z,1024.47
2017-02-12T00:15:42.098Z,1024.49
2017-02-12T00:16:42.035Z,1024.5
2017-02-12T00:17:41.972Z,1024.5
2017-02-12T00:18:41.908Z,1024.52
2017-02-12T00:19:41.844Z,1024.55
2017-02-12T00:20:41.780Z,1024.55
2017-02-12T00:21:41.718Z,1024.57
2017-02-12T00:22:41.653Z,1024.55
2017-02-12T00:23:41.592Z,1024.53
2017-02-12T00:24:41.527Z,1024.6
2017-02-12T00:25:41.462Z,1024.52
2017-02-12T00:26:41.399Z,1024.61
2017-02-12T00:27:41.335Z,1024.6
2017-02-12T00:28:41.272Z,1024.59
2017-02-12T00:29:41.207Z,1024.61
2017-02-12T00:30:41.145Z,1024.61
2017-02-12T00:31:41.083Z,1024.61
2017-02-12T00:32:41.018Z,1024.63
2017-02-12T00:33:40.955Z,1024.62
2017-02-12T00:34:40.892Z,1024.58
2017-02-12T00:35:40.827Z,1024.58
2017-02-12T00:36:40.763Z,1024.65
2017-02-12T00:37:40.700Z,1024.66
2017-02-12T00:38:40.636Z,1024.66
2017-02-12T00:39:40.572Z,1024.65
2017-02-12T00:40:40.509Z,1024.66
2017-02-12T00:41:40.446Z,1024.64
2017-02-12T00:42:40.382Z,1024.73
2017-02-12T00:43:40.319Z,1024.7
2017-02-12T00:44:40.256Z,1024.76
2017-02-12T00:45:40.193Z,1024.74
2017-02-12T00:46:40.130Z,1024.74
2017-02-12T00:47:40.064Z,1024.72
2017-02-12T00:48:40.000Z,1024.74
2017-02-12T00:49:39.938Z,1024.76
2017-02-12T00:50:39.875Z,1024.76
2017-02-12T00:51:39.810Z,1024.78
2017-02-12T00:52:39.749Z,1024.76
2017-02-12T00:53:39.684Z,1024.78
2017-02-12T00:54:39.618Z,1024.76
2017-02-12T00:55:39.556Z,1024.71
2017-02-12T00:56:39.493Z,1024.69
2017-02-12T00:57:39.430Z,1024.73
2017-02-12T00:58:39.364Z,1024.76
2017-02-12T00:59:39.301Z,1024.7
2017-02-12T01:01:10.534Z,1024.71
2017-02-12T01:02:10.467Z,1024.64
2017-02-12T01:03:10.403Z,1024.68
2017-02-12T01:04:10.337Z,1024.76
2017-02-12T01:05:10.278Z,1024.74
2017-02-12T01:06:10.215Z,1024.71
2017-02-12T01:07:10.148Z,1024.72
2017-02-12T01:08:10.085Z,1024.73
2017-02-12T01:09:10.024Z,1024.71
2017-02-12T01:10:09.956Z,1024.7
2017-02-12T01:11:09.894Z,1024.69
2017-02-12T01:12:09.828Z,1024.69
2017-02-12T01:13:09.767Z,1024.71
2017-02-12T01:14:09.704Z,1024.73
2017-02-12T01:15:09.640Z,1024.76
2017-02-12T01:16:09.575Z,1024.7
2017-02-12T01:17:09.513Z,1024.72
2017-02-12T01:18:09.447Z,1024.76
2017-02-12T01:19:09.385Z,1024.74
2017-02-12T01:20:09.321Z,1024.75
2017-02-12T01:21:09.259Z,1024.78
2017-02-12T01:22:09.193Z,1024.76
2017-02-12T01:23:09.130Z,1024.8
2017-02-12T01:24:09.078Z,1024.81
2017-02-12T01:25:09.005Z,1024.81
2017-02-12T01:26:08.939Z,1024.8
2017-02-12T01:27:08.877Z,1024.88
2017-02-12T01:28:08.812Z,1024.86
2017-02-12T01:29:08.750Z,1024.87
2017-02-12T01:30:08.685Z,1024.9
2017-02-12T01:31:08.621Z,1024.92
2017-02-12T01:32:08.557Z,1024.95
2017-02-12T01:33:08.494Z,1024.93
2017-02-12T01:34:08.430Z,1024.99
2017-02-12T01:35:08.619Z,1024.99
2017-02-12T01:36:08.304Z,1025
2017-02-12T01:37:08.238Z,1025.01
2017-02-12T01:38:08.175Z,1024.98
2017-02-12T01:39:08.112Z,1024.99
2017-02-12T01:40:08.049Z,1024.98
2017-02-12T01:41:07.984Z,1025
2017-02-12T01:42:07.920Z,1025
2017-02-12T01:43:07.858Z,1025
2017-02-12T01:44:07.795Z,1025.05
2017-02-12T01:45:07.730Z,1025.05
2017-02-12T01:46:07.667Z,1025.01
2017-02-12T01:47:07.608Z,1024.98
2017-02-12T01:48:07.542Z,1025.01
2017-02-12T01:49:07.476Z,1024.99
2017-02-12T01:50:07.713Z,1025.01
2017-02-12T01:51:07.351Z,1024.96
2017-02-12T01:52:07.285Z,1024.98
2017-02-12T01:53:07.223Z,1024.98
2017-02-12T01:54:07.159Z,1025.02
2017-02-12T01:55:07.144Z,1024.99
2017-02-12T01:56:07.032Z,1025.01
2017-02-12T01:57:06.967Z,1025.02
2017-02-12T01:58:06.906Z,1025
2017-02-12T01:59:06.841Z,1025.05
2017-02-12T02:00:06.776Z,1025.04
2017-02-12T02:01:06.713Z,1025.1
2017-02-12T02:02:06.652Z,1025.1
2017-02-12T02:03:06.587Z,1025.11
2017-02-12T02:04:06.523Z,1025.18
2017-02-12T02:05:06.711Z,1025.17
2017-02-12T02:06:06.395Z,1025.18
2017-02-12T02:07:06.331Z,1025.18
2017-02-12T02:08:06.268Z,1025.21
2017-02-12T02:09:06.205Z,1025.2
2017-02-12T02:10:06.390Z,1025.18
2017-02-12T02:11:06.077Z,1025.17
2017-02-12T02:12:06.045Z,1025.15
2017-02-12T02:13:05.951Z,1025.18
2017-02-12T02:14:05.888Z,1025.18
2017-02-12T02:15:06.073Z,1025.2
2017-02-12T02:16:05.761Z,1025.22
2017-02-12T02:17:05.696Z,1025.18
2017-02-12T02:18:05.632Z,1025.21
2017-02-12T02:19:05.617Z,1025.19
2017-02-12T02:20:05.505Z,1025.22
2017-02-12T02:21:05.442Z,1025.2
2017-02-12T02:22:05.378Z,1025.2
2017-02-12T02:23:05.316Z,1025.24
2017-02-12T02:24:05.251Z,1025.24
2017-02-12T02:25:05.192Z,1025.21
2017-02-12T02:26:05.122Z,1025.19
2017-02-12T02:27:05.060Z,1025.18
2017-02-12T02:28:04.996Z,1025.22
2017-02-12T02:29:04.933Z,1025.22
2017-02-12T02:30:04.874Z,1025.22
2017-02-12T02:31:04.808Z,1025.18
2017-02-12T02:32:04.744Z,1025.21
2017-02-12T02:33:04.679Z,1025.21
2017-02-12T02:34:04.617Z,1025.27
2017-02-12T02:35:04.553Z,1025.26
2017-02-12T02:36:04.489Z,1025.27
2017-02-12T02:37:04.427Z,1025.25
2017-02-12T02:38:04.364Z,1025.25
2017-02-12T02:39:04.298Z,1025.29
2017-02-12T02:40:04.234Z,1025.21
2017-02-12T02:41:04.171Z,1025.23
2017-02-12T02:42:04.108Z,1025.3
2017-02-12T02:43:04.047Z,1025.27
2017-02-12T02:44:03.980Z,1025.24
2017-02-12T02:45:03.985Z,1025.3
2017-02-12T02:46:03.853Z,1025.31
2017-02-12T02:47:03.793Z,1025.32
2017-02-12T02:48:03.727Z,1025.28
2017-02-12T02:49:03.663Z,1025.32
2017-02-12T02:50:03.600Z,1025.28
2017-02-12T02:51:03.535Z,1025.26
2017-02-12T02:52:03.474Z,1025.29
2017-02-12T02:53:03.409Z,1025.25
2017-02-12T02:54:03.343Z,1025.25
2017-02-12T02:55:03.282Z,1025.27
2017-02-12T02:56:03.217Z,1025.25
2017-02-12T02:57:03.152Z,1025.27
2017-02-12T02:58:03.090Z,1025.3
2017-02-12T02:59:03.028Z,1025.28
2017-02-12T03:00:02.966Z,1025.32
2017-02-12T03:01:02.901Z,1025.29
2017-02-12T03:02:02.837Z,1025.31
2017-02-12T03:03:02.773Z,1025.32
2017-02-12T03:04:02.711Z,1025.29
2017-02-12T03:05:02.665Z,1025.28
2017-02-12T03:06:02.651Z,1025.3
2017-02-12T03:07:02.518Z,1025.33
2017-02-12T03:08:02.455Z,1025.35
2017-02-12T03:09:02.391Z,1025.36
2017-02-12T03:10:02.332Z,1025.34
2017-02-12T03:11:02.288Z,1025.37
2017-02-12T03:12:02.200Z,1025.34
2017-02-12T03:13:02.181Z,1025.34
2017-02-12T03:14:02.073Z,1025.34
2017-02-12T03:15:02.013Z,1025.32
2017-02-12T03:16:01.947Z,1025.35
2017-02-12T03:17:01.887Z,1025.35
2017-02-12T03:18:01.822Z,1025.39
2017-02-12T03:19:01.754Z,1025.38
2017-02-12T03:20:01.693Z,1025.35
2017-02-12T03:21:01.629Z,1025.35
2017-02-12T03:22:01.566Z,1025.38
2017-02-12T03:23:01.502Z,1025.38
2017-02-12T03:24:01.443Z,1025.38
2017-02-12T03:25:01.375Z,1025.4
2017-02-12T03:26:01.312Z,1025.41
2017-02-12T03:27:01.250Z,1025.46
2017-02-12T03:28:01.189Z,1025.48
2017-02-12T03:29:01.121Z,1025.44
2017-02-12T03:30:01.064Z,1025.43
2017-02-12T03:31:00.992Z,1025.47
2017-02-12T03:32:00.929Z,1025.44
2017-02-12T03:33:00.865Z,1025.48
2017-02-12T03:34:00.802Z,1025.49
2017-02-12T03:35:00.749Z,1025.5
2017-02-12T03:36:00.674Z,1025.51
2017-02-12T03:37:00.611Z,1025.5
2017-02-12T03:38:00.547Z,1025.54
2017-02-12T03:39:00.484Z,1025.6
2017-02-12T03:40:00.421Z,1025.55
2017-02-12T03:41:00.356Z,1025.59
2017-02-12T03:42:00.294Z,1025.6
2017-02-12T03:43:00.231Z,1025.57
2017-02-12T03:44:00.166Z,1025.62
2017-02-12T03:45:00.103Z,1025.6
2017-02-12T03:46:00.038Z,1025.62
2017-02-12T03:46:59.975Z,1025.69
2017-02-12T03:47:59.924Z,1025.67
2017-02-12T03:48:59.848Z,1025.68
2017-02-12T03:49:59.785Z,1025.66
2017-02-12T03:50:59.722Z,1025.65
2017-02-12T03:51:59.656Z,1025.66
2017-02-12T03:52:59.593Z,1025.69
2017-02-12T03:53:59.528Z,1025.72
2017-02-12T03:54:59.467Z,1025.71
2017-02-12T03:55:59.420Z,1025.76
2017-02-12T03:56:59.339Z,1025.76
2017-02-12T03:57:59.275Z,1025.73
2017-02-12T03:58:59.213Z,1025.71
2017-02-12T03:59:59.148Z,1025.7
2017-02-12T04:00:59.085Z,1025.74
2017-02-12T04:01:59.020Z,1025.73
2017-02-12T04:02:58.956Z,1025.74
2017-02-12T04:03:58.892Z,1025.76
2017-02-12T04:04:58.830Z,1025.74
2017-02-12T04:05:58.767Z,1025.75
2017-02-12T04:06:58.704Z,1025.79
2017-02-12T04:07:58.640Z,1025.74
2017-02-12T04:08:58.575Z,1025.81
2017-02-12T04:09:58.513Z,1025.79
2017-02-12T04:10:58.449Z,1025.79
2017-02-12T04:11:58.388Z,1025.82
2017-02-12T04:12:58.322Z,1025.77
2017-02-12T04:13:58.259Z,1025.8
2017-02-12T04:14:58.194Z,1025.79
2017-02-12T04:15:58.133Z,1025.83
2017-02-12T04:16:58.067Z,1025.88
2017-02-12T04:17:58.005Z,1025.85
2017-02-12T04:18:57.940Z,1025.89
2017-02-12T04:19:57.879Z,1025.93
2017-02-12T04:20:57.814Z,1025.93
2017-02-12T04:21:57.796Z,1025.92
2017-02-12T04:22:57.687Z,1025.94
2017-02-12T04:23:57.625Z,1025.96
2017-02-12T04:24:57.561Z,1025.96
2017-02-12T04:25:57.494Z,1025.99
2017-02-12T04:26:57.433Z,1025.99
2017-02-12T04:27:57.369Z,1025.97
2017-02-12T04:28:57.306Z,1025.99
2017-02-12T04:29:57.240Z,1026
2017-02-12T04:30:57.177Z,1026.02
2017-02-12T04:31:57.112Z,1026.03
2017-02-12T04:32:57.048Z,1026.02
2017-02-12T04:33:56.986Z,1026.05
2017-02-12T04:34:56.925Z,1026.01
2017-02-12T04:35:56.860Z,1026.01
2017-02-12T04:36:56.796Z,1026.03
2017-02-12T04:37:56.732Z,1025.99
2017-02-12T04:38:56.669Z,1025.99
2017-02-12T04:39:56.635Z,1026.07
2017-02-12T04:40:56.541Z,1025.99
2017-02-12T04:41:56.477Z,1026
2017-02-12T04:42:56.415Z,1026
2017-02-12T04:43:56.352Z,1026.01
2017-02-12T04:44:56.290Z,1026.01
2017-02-12T04:45:56.223Z,1025.99
2017-02-12T04:46:56.162Z,1025.98
2017-02-12T04:47:56.097Z,1025.95
2017-02-12T04:48:56.032Z,1025.91
2017-02-12T04:49:55.969Z,1025.9
2017-02-12T04:50:55.904Z,1025.91
2017-02-12T04:51:55.843Z,1025.95
2017-02-12T04:52:55.778Z,1025.94
2017-02-12T04:53:55.713Z,1025.93
2017-02-12T04:54:55.651Z,1025.95
2017-02-12T04:55:55.588Z,1025.96
2017-02-12T04:56:55.526Z,1025.92
2017-02-12T04:57:55.459Z,1025.91
2017-02-12T04:58:55.398Z,1025.94
2017-02-12T04:59:55.333Z,1025.91
2017-02-12T05:00:55.269Z,1025.94
2017-02-12T05:01:55.205Z,1025.91
2017-02-12T05:02:55.142Z,1025.92
2017-02-12T05:03:55.078Z,1025.94
2017-02-12T05:04:55.016Z,1025.95
2017-02-12T05:05:54.953Z,1025.95
2017-02-12T05:06:54.891Z,1025.92
2017-02-12T05:07:54.832Z,1025.94
2017-02-12T05:08:54.765Z,1025.96
2017-02-12T05:09:54.698Z,1025.98
2017-02-12T05:10:54.636Z,1025.99
2017-02-12T05:11:54.572Z,1026.02
2017-02-12T05:12:54.505Z,1026.02
2017-02-12T05:13:54.442Z,1026
2017-02-12T05:14:54.379Z,1026.03
2017-02-12T05:15:54.315Z,1026.03
2017-02-12T05:16:54.253Z,1026.07
2017-02-12T05:17:54.188Z,1026.05
2017-02-12T05:18:54.126Z,1026.08
2017-02-12T05:19:54.062Z,1026.07
2017-02-12T05:20:53.999Z,1026.09
2017-02-12T05:21:53.933Z,1026.08
2017-02-12T05:22:53.871Z,1026.13
2017-02-12T05:23:53.807Z,1026.15
2017-02-12T05:24:53.744Z,1026.13
2017-02-12T05:25:53.678Z,1026.13
2017-02-12T05:26:53.616Z,1026.19
2017-02-12T05:27:53.552Z,1026.14
2017-02-12T05:28:53.490Z,1026.17
2017-02-12T05:29:53.424Z,1026.17
2017-02-12T05:30:53.361Z,1026.13
2017-02-12T05:31:53.297Z,1026.17
2017-02-12T05:32:53.236Z,1026.25
2017-02-12T05:33:53.171Z,1026.23
2017-02-12T05:34:53.106Z,1026.25
2017-02-12T05:35:53.045Z,1026.28
2017-02-12T05:36:52.981Z,1026.29
2017-02-12T05:37:52.916Z,1026.32
2017-02-12T05:38:52.852Z,1026.31
2017-02-12T05:39:52.789Z,1026.34
2017-02-12T05:40:52.727Z,1026.32
2017-02-12T05:41:52.661Z,1026.33
2017-02-12T05:42:52.599Z,1026.35
2017-02-12T05:43:52.535Z,1026.37
2017-02-12T05:44:52.472Z,1026.37
2017-02-12T05:45:52.408Z,1026.33
2017-02-12T05:46:52.346Z,1026.38
2017-02-12T05:47:52.285Z,1026.39
2017-02-12T05:48:52.218Z,1026.39
2017-02-12T05:49:52.156Z,1026.39
2017-02-12T05:50:52.092Z,1026.45
2017-02-12T05:51:52.033Z,1026.46
2017-02-12T05:52:51.963Z,1026.48
2017-02-12T05:53:51.901Z,1026.48
2017-02-12T05:54:51.837Z,1026.49
2017-02-12T05:55:51.773Z,1026.51
2017-02-12T05:56:51.710Z,1026.53
2017-02-12T05:57:51.647Z,1026.51
2017-02-12T05:58:51.582Z,1026.53
2017-02-12T05:59:51.520Z,1026.52
2017-02-12T06:00:51.460Z,1026.55
2017-02-12T06:01:51.391Z,1026.55
2017-02-12T06:02:51.329Z,1026.56
2017-02-12T06:03:51.263Z,1026.56
2017-02-12T06:04:51.199Z,1026.54
2017-02-12T06:05:51.144Z,1026.59
2017-02-12T06:06:51.071Z,1026.57
2017-02-12T06:07:51.017Z,1026.59
2017-02-12T06:08:50.946Z,1026.57
2017-02-12T06:09:50.882Z,1026.6
2017-02-12T06:10:50.819Z,1026.61
2017-02-12T06:11:50.755Z,1026.64
2017-02-12T06:12:50.691Z,1026.62
2017-02-12T06:13:50.628Z,1026.64
2017-02-12T06:14:50.565Z,1026.65
2017-02-12T06:15:50.500Z,1026.66
2017-02-12T06:16:50.439Z,1026.67
2017-02-12T06:17:50.372Z,1026.69
2017-02-12T06:18:50.310Z,1026.72
2017-02-12T06:19:50.246Z,1026.7
2017-02-12T06:20:50.184Z,1026.67
2017-02-12T06:21:50.121Z,1026.74
2017-02-12T06:22:50.056Z,1026.72
2017-02-12T06:23:49.993Z,1026.78
2017-02-12T06:24:49.931Z,1026.76
2017-02-12T06:25:49.867Z,1026.82
2017-02-12T06:26:49.801Z,1026.77
2017-02-12T06:27:49.738Z,1026.79
2017-02-12T06:28:49.674Z,1026.81
2017-02-12T06:29:49.611Z,1026.81
2017-02-12T06:30:49.546Z,1026.79
2017-02-12T06:31:49.483Z,1026.81
2017-02-12T06:32:49.419Z,1026.79
2017-02-12T06:33:49.356Z,1026.81
2017-02-12T06:34:49.291Z,1026.82
2017-02-12T06:35:49.230Z,1026.84
2017-02-12T06:36:49.166Z,1026.84
2017-02-12T06:37:49.102Z,1026.83
2017-02-12T06:38:49.037Z,1026.8
2017-02-12T06:39:48.975Z,1026.79
2017-02-12T06:40:48.912Z,1026.84
2017-02-12T06:41:48.848Z,1026.85
2017-02-12T06:42:48.786Z,1026.9
2017-02-12T06:43:48.720Z,1026.91
2017-02-12T06:44:48.656Z,1026.88
2017-02-12T06:45:48.594Z,1026.89
2017-02-12T06:46:48.529Z,1026.96
2017-02-12T06:47:48.467Z,1026.93
2017-02-12T06:48:48.401Z,1026.96
2017-02-12T06:49:48.338Z,1026.93
2017-02-12T06:50:48.275Z,1026.96
2017-02-12T06:51:48.212Z,1026.9
2017-02-12T06:52:48.147Z,1026.95
2017-02-12T06:53:48.084Z,1026.99
2017-02-12T06:54:48.021Z,1026.98
2017-02-12T06:55:47.957Z,1026.97
2017-02-12T06:56:47.894Z,1026.96
2017-02-12T06:57:47.830Z,1026.95
2017-02-12T06:58:47.767Z,1026.95
2017-02-12T06:59:47.703Z,1026.95
2017-02-12T07:00:47.641Z,1026.91
2017-02-12T07:01:47.575Z,1026.91
2017-02-12T07:02:47.514Z,1026.95
2017-02-12T07:03:47.449Z,1026.96
2017-02-12T07:04:47.387Z,1026.96
2017-02-12T07:05:47.319Z,1026.94
2017-02-12T07:06:47.257Z,1026.97
2017-02-12T07:07:47.194Z,1026.99
2017-02-12T07:08:47.132Z,1027
2017-02-12T07:09:47.067Z,1026.99
2017-02-12T07:10:47.003Z,1027.03
2017-02-12T07:11:46.939Z,1027.05
2017-02-12T07:12:46.874Z,1027.08
2017-02-12T07:13:46.816Z,1027.06
2017-02-12T07:14:46.749Z,1027.04
2017-02-12T07:15:46.689Z,1027.05
2017-02-12T07:16:46.623Z,1027.08
2017-02-12T07:17:46.557Z,1027.1
2017-02-12T07:18:46.495Z,1027.05
2017-02-12T07:19:46.432Z,1027.06
2017-02-12T07:20:46.367Z,1027.09
2017-02-12T07:21:46.304Z,1027.11
2017-02-12T07:22:46.241Z,1027.11
2017-02-12T07:23:46.178Z,1027.15
2017-02-12T07:24:46.115Z,1027.14
2017-02-12T07:25:46.051Z,1027.19
2017-02-12T07:26:45.987Z,1027.19
2017-02-12T07:27:45.921Z,1027.2
2017-02-12T07:28:45.858Z,1027.17
2017-02-12T07:29:45.796Z,1027.22
2017-02-12T07:30:45.732Z,1027.2
2017-02-12T07:31:45.669Z,1027.21
2017-02-12T07:32:45.646Z,1027.26
2017-02-12T07:33:45.542Z,1027.24
2017-02-12T07:34:45.479Z,1027.25
2017-02-12T07:35:45.419Z,1027.23
2017-02-12T07:36:45.365Z,1027.24
2017-02-12T07:37:45.288Z,1027.28
2017-02-12T07:38:45.223Z,1027.26
2017-02-12T07:39:45.161Z,1027.28
2017-02-12T07:40:45.097Z,1027.3
2017-02-12T07:41:45.034Z,1027.32
2017-02-12T07:42:44.970Z,1027.32
2017-02-12T07:43:44.906Z,1027.33
2017-02-12T07:44:44.843Z,1027.35
2017-02-12T07:45:44.779Z,1027.38
2017-02-12T07:46:44.714Z,1027.39
2017-02-12T07:47:44.651Z,1027.42
2017-02-12T07:48:44.588Z,1027.45
2017-02-12T07:49:44.524Z,1027.47
2017-02-12T07:50:44.462Z,1027.49
2017-02-12T07:51:44.398Z,1027.51
2017-02-12T07:52:44.333Z,1027.51
2017-02-12T07:53:44.273Z,1027.54
2017-02-12T07:54:44.206Z,1027.56
2017-02-12T07:55:44.144Z,1027.59
2017-02-12T07:56:44.080Z,1027.63
2017-02-12T07:57:44.014Z,1027.6
2017-02-12T07:58:43.953Z,1027.69
2017-02-12T07:59:43.888Z,1027.73
2017-02-12T08:00:43.826Z,1027.73
2017-02-12T08:01:43.762Z,1027.73
2017-02-12T08:02:43.697Z,1027.71
2017-02-12T08:03:43.634Z,1027.72
2017-02-12T08:04:43.570Z,1027.7
2017-02-12T08:05:43.507Z,1027.66
2017-02-12T08:06:43.446Z,1027.71
2017-02-12T08:07:43.379Z,1027.72
2017-02-12T08:08:43.315Z,1027.72
2017-02-12T08:09:43.253Z,1027.73
2017-02-12T08:10:43.189Z,1027.75
2017-02-12T08:11:43.124Z,1027.73
2017-02-12T08:12:43.062Z,1027.74
2017-02-12T08:13:43.002Z,1027.74
2017-02-12T08:14:42.935Z,1027.74
2017-02-12T08:15:42.872Z,1027.76
2017-02-12T08:16:42.806Z,1027.79
2017-02-12T08:17:42.746Z,1027.76
2017-02-12T08:18:42.680Z,1027.78
2017-02-12T08:19:42.618Z,1027.76
2017-02-12T08:20:42.553Z,1027.79
2017-02-12T08:21:42.489Z,1027.77
2017-02-12T08:22:42.426Z,1027.7
2017-02-12T08:23:42.362Z,1027.71
2017-02-12T08:24:42.301Z,1027.76
2017-02-12T08:25:42.236Z,1027.71
2017-02-12T08:26:42.172Z,1027.76
2017-02-12T08:27:42.108Z,1027.75
2017-02-12T08:28:42.044Z,1027.73
2017-02-12T08:29:41.980Z,1027.81
2017-02-12T08:30:41.918Z,1027.79
2017-02-12T08:31:41.853Z,1027.84
2017-02-12T08:32:41.790Z,1027.82
2017-02-12T08:33:41.728Z,1027.86
2017-02-12T08:34:41.661Z,1027.93
2017-02-12T08:35:41.600Z,1027.87
2017-02-12T08:36:41.535Z,1027.87
2017-02-12T08:37:41.470Z,1027.88
2017-02-12T08:38:41.408Z,1027.86
2017-02-12T08:39:41.354Z,1027.85
2017-02-12T08:40:41.288Z,1027.89
2017-02-12T08:41:41.217Z,1027.89
2017-02-12T08:42:41.155Z,1027.9
2017-02-12T08:43:41.090Z,1027.92
2017-02-12T08:44:41.027Z,1027.95
2017-02-12T08:45:40.962Z,1027.99
2017-02-12T08:46:40.900Z,1028
2017-02-12T08:47:40.839Z,1028.05
2017-02-12T08:48:40.772Z,1028.03
2017-02-12T08:49:40.709Z,1028.06
2017-02-12T08:50:40.646Z,1028.05
2017-02-12T08:51:40.581Z,1028.07
2017-02-12T08:52:40.517Z,1028.08
2017-02-12T08:53:40.454Z,1028.13
2017-02-12T08:54:40.391Z,1028.14
2017-02-12T08:55:40.328Z,1028.07
2017-02-12T08:56:40.265Z,1028.08
2017-02-12T08:57:40.200Z,1028.16
2017-02-12T08:58:40.137Z,1028.11
2017-02-12T08:59:40.072Z,1028.16
2017-02-12T09:00:40.018Z,1028.15
2017-02-12T09:01:39.957Z,1028.17
2017-02-12T09:02:39.883Z,1028.13
2017-02-12T09:03:39.821Z,1028.16
2017-02-12T09:04:39.756Z,1028.17
2017-02-12T09:05:39.691Z,1028.15
2017-02-12T09:06:39.628Z,1028.13
2017-02-12T09:07:39.564Z,1028.19
2017-02-12T09:08:39.503Z,1028.17
2017-02-12T09:09:39.442Z,1028.18
2017-02-12T09:10:39.374Z,1028.22
2017-02-12T09:11:39.311Z,1028.25
2017-02-12T09:12:39.248Z,1028.22
2017-02-12T09:13:39.182Z,1028.2
2017-02-12T09:14:39.119Z,1028.23
2017-02-12T09:15:39.057Z,1028.27
2017-02-12T09:16:38.992Z,1028.25
2017-02-12T09:17:38.929Z,1028.27
2017-02-12T09:18:38.866Z,1028.29
2017-02-12T09:19:38.806Z,1028.32
2017-02-12T09:20:38.738Z,1028.31
2017-02-12T09:21:38.677Z,1028.31
2017-02-12T09:22:38.611Z,1028.33
2017-02-12T09:23:38.548Z,1028.33
2017-02-12T09:24:38.482Z,1028.37
2017-02-12T09:25:38.420Z,1028.36
2017-02-12T09:26:38.357Z,1028.39
2017-02-12T09:27:38.292Z,1028.4
2017-02-12T09:28:38.230Z,1028.43
2017-02-12T09:29:38.166Z,1028.4
2017-02-12T09:30:38.102Z,1028.44
2017-02-12T09:31:38.039Z,1028.46
2017-02-12T09:32:38.018Z,1028.49
2017-02-12T09:33:37.917Z,1028.51
2017-02-12T09:34:37.848Z,1028.53
2017-02-12T09:35:37.796Z,1028.57
2017-02-12T09:36:37.719Z,1028.55
2017-02-12T09:37:37.656Z,1028.6
2017-02-12T09:38:37.592Z,1028.63
2017-02-12T09:39:37.530Z,1028.6
2017-02-12T09:40:37.466Z,1028.58
2017-02-12T09:41:37.403Z,1028.57
2017-02-12T09:42:37.338Z,1028.63
2017-02-12T09:43:37.274Z,1028.63
2017-02-12T09:44:37.211Z,1028.64
2017-02-12T09:45:37.147Z,1028.7
2017-02-12T09:46:37.095Z,1028.66
2017-02-12T09:47:37.020Z,1028.68
2017-02-12T09:48:36.957Z,1028.68
2017-02-12T09:49:36.893Z,1028.66
2017-02-12T09:50:36.830Z,1028.68
2017-02-12T09:51:36.765Z,1028.7
2017-02-12T09:52:36.702Z,1028.71
2017-02-12T09:53:36.639Z,1028.74
2017-02-12T09:54:36.575Z,1028.81
2017-02-12T09:55:36.519Z,1028.78
2017-02-12T09:56:36.448Z,1028.78
2017-02-12T09:57:36.385Z,1028.75
2017-02-12T09:58:36.321Z,1028.73
2017-02-12T09:59:36.257Z,1028.73
2017-02-12T10:00:36.193Z,1028.71
2017-02-12T10:01:36.130Z,1028.73
2017-02-12T10:02:36.076Z,1028.72
2017-02-12T10:03:36.004Z,1028.7
2017-02-12T10:04:35.938Z,1028.67
2017-02-12T10:05:35.877Z,1028.71
2017-02-12T10:06:35.812Z,1028.72
2017-02-12T10:07:35.749Z,1028.78
2017-02-12T10:08:35.686Z,1028.81
2017-02-12T10:09:35.621Z,1028.82
2017-02-12T10:10:35.557Z,1028.85
2017-02-12T10:11:35.495Z,1028.91
2017-02-12T10:12:35.429Z,1028.88
2017-02-12T10:13:35.368Z,1028.9
2017-02-12T10:14:35.305Z,1028.88
2017-02-12T10:15:35.239Z,1028.91
2017-02-12T10:16:35.176Z,1028.93
2017-02-12T10:17:35.113Z,1028.96
2017-02-12T10:18:35.051Z,1028.97
2017-02-12T10:19:34.987Z,1028.95
2017-02-12T10:20:34.922Z,1028.99
2017-02-12T10:21:34.858Z,1028.98
2017-02-12T10:22:34.796Z,1029.02
2017-02-12T10:23:34.732Z,1029.09
2017-02-12T10:24:34.668Z,1029.1
2017-02-12T10:25:34.607Z,1029.11
2017-02-12T10:26:34.540Z,1029.07
2017-02-12T10:27:34.478Z,1029.07
2017-02-12T10:28:34.415Z,1029.07
2017-02-12T10:29:34.352Z,1029.08
2017-02-12T10:30:34.288Z,1029.1
2017-02-12T10:31:34.224Z,1029.06
2017-02-12T10:32:34.207Z,1029.13
2017-02-12T10:33:34.097Z,1029.14
2017-02-12T10:34:34.036Z,1029.13
2017-02-12T10:35:33.970Z,1029.15
2017-02-12T10:36:33.908Z,1029.08
2017-02-12T10:37:33.843Z,1029.14
2017-02-12T10:38:33.782Z,1029.14
2017-02-12T10:39:33.721Z,1029.1
2017-02-12T10:40:33.652Z,1029.12
2017-02-12T10:41:33.589Z,1029.14
2017-02-12T10:42:33.526Z,1029.14
2017-02-12T10:43:33.462Z,1029.14
2017-02-12T10:44:33.399Z,1029.17
2017-02-12T10:45:33.336Z,1029.17
2017-02-12T10:46:33.272Z,1029.16
2017-02-12T10:47:33.209Z,1029.18
2017-02-12T10:48:33.145Z,1029.18
2017-02-12T10:49:33.080Z,1029.2
2017-02-12T10:50:33.018Z,1029.18
2017-02-12T10:51:32.956Z,1029.2
2017-02-12T10:52:32.890Z,1029.21
2017-02-12T10:53:32.827Z,1029.17
2017-02-12T10:54:32.765Z,1029.23
2017-02-12T10:55:32.699Z,1029.29
2017-02-12T10:56:32.635Z,1029.26
2017-02-12T10:57:32.573Z,1029.26
2017-02-12T10:58:32.509Z,1029.24
2017-02-12T10:59:32.447Z,1029.24
2017-02-12T11:00:32.383Z,1029.2
2017-02-12T11:01:32.319Z,1029.2
2017-02-12T11:02:32.253Z,1029.15
2017-02-12T11:03:32.196Z,1029.16
2017-02-12T11:04:32.127Z,1029.21
2017-02-12T11:05:32.063Z,1029.23
2017-02-12T11:06:32.002Z,1029.25
2017-02-12T11:07:31.937Z,1029.28
2017-02-12T11:08:31.872Z,1029.33
2017-02-12T11:09:31.811Z,1029.33
2017-02-12T11:10:31.747Z,1029.35
2017-02-12T11:11:31.682Z,1029.33
2017-02-12T11:12:31.618Z,1029.3
2017-02-12T11:13:31.555Z,1029.33
2017-02-12T11:14:31.495Z,1029.35
2017-02-12T11:15:31.428Z,1029.35
2017-02-12T11:16:31.366Z,1029.33
2017-02-12T11:17:31.506Z,1029.31
2017-02-12T11:18:31.240Z,1029.31
2017-02-12T11:19:31.176Z,1029.29
2017-02-12T11:20:31.116Z,1029.26
2017-02-12T11:21:31.046Z,1029.26
2017-02-12T11:22:30.983Z,1029.22
2017-02-12T11:23:30.963Z,1029.27
2017-02-12T11:24:30.857Z,1029.27
2017-02-12T11:25:30.793Z,1029.28
2017-02-12T11:26:30.731Z,1029.26
2017-02-12T11:27:30.666Z,1029.25
2017-02-12T11:28:30.604Z,1029.27
2017-02-12T11:29:30.539Z,1029.25
2017-02-12T11:30:30.475Z,1029.28
2017-02-12T11:31:30.414Z,1029.29
2017-02-12T11:32:30.350Z,1029.28
2017-02-12T11:33:30.285Z,1029.29
2017-02-12T11:34:30.221Z,1029.32
2017-02-12T11:35:30.158Z,1029.3
2017-02-12T11:36:30.098Z,1029.31
2017-02-12T11:37:30.031Z,1029.26
2017-02-12T11:38:29.968Z,1029.32
2017-02-12T11:39:29.903Z,1029.26
2017-02-12T11:40:29.841Z,1029.28
2017-02-12T11:41:29.777Z,1029.31
2017-02-12T11:42:29.714Z,1029.36
2017-02-12T11:43:29.648Z,1029.34
2017-02-12T11:44:29.587Z,1029.33
2017-02-12T11:45:29.523Z,1029.33
2017-02-12T11:46:29.465Z,1029.34
2017-02-12T11:47:29.396Z,1029.34
2017-02-12T11:48:29.335Z,1029.36
2017-02-12T11:49:29.269Z,1029.36
2017-02-12T11:50:29.204Z,1029.34
2017-02-12T11:51:29.143Z,1029.33
2017-02-12T11:52:29.079Z,1029.32
2017-02-12T11:53:29.014Z,1029.38
2017-02-12T11:54:28.952Z,1029.33
2017-02-12T11:55:28.888Z,1029.35
2017-02-12T11:56:28.823Z,1029.38
2017-02-12T11:57:28.760Z,1029.38
2017-02-12T11:58:28.696Z,1029.37
2017-02-12T11:59:28.635Z,1029.35
2017-02-12T12:00:28.571Z,1029.34
2017-02-12T12:01:28.507Z,1029.38
2017-02-12T12:02:28.443Z,1029.4
2017-02-12T12:03:28.379Z,1029.3
2017-02-12T12:04:28.318Z,1029.35
2017-02-12T12:05:28.253Z,1029.33
2017-02-12T12:06:28.189Z,1029.27
2017-02-12T12:07:28.165Z,1029.32
2017-02-12T12:08:28.063Z,1029.34